sensor_id;sensor_type;location;lat;lon;timestamp;P1;durP1;ratioP1;P2;durP2;ratioP2
76021;SDS011;64718;52.124;6.226;2023-02-28T00:01:17;3.45;;;1.80;;
76021;SDS011;64718;52.124;6.226;2023-02-28T00:03:44;3.45;;;2.08;;
76021;SDS011;64718;52.124;6.226;2023-02-28T00:06:10;6.43;;;2.40;;
76021;SDS011;64718;52.124;6.226;2023-02-28T00:08:37;4.20;;;2.13;;
76021;SDS011;64718;52.124;6.226;2023-02-28T00:11:04;5.40;;;2.65;;
76021;SDS011;64718;52.124;6.226;2023-02-28T00:13:35;5.85;;;2.42;;
76021;SDS011;64718;52.124;6.226;2023-02-28T00:16:04;5.78;;;2.00;;
76021;SDS011;64718;52.124;6.226;2023-02-28T00:18:32;5.38;;;2.75;;
76021;SDS011;64718;52.124;6.226;2023-02-28T00:20:58;5.93;;;2.20;;
76021;SDS011;64718;52.124;6.226;2023-02-28T00:23:25;3.05;;;2.10;;
76021;SDS011;64718;52.124;6.226;2023-02-28T00:25:52;5.25;;;2.58;;
76021;SDS011;64718;52.124;6.226;2023-02-28T00:28:20;5.50;;;2.22;;
76021;SDS011;64718;52.124;6.226;2023-02-28T00:30:48;3.97;;;2.13;;
76021;SDS011;64718;52.124;6.226;2023-02-28T00:33:14;4.72;;;2.25;;
76021;SDS011;64718;52.124;6.226;2023-02-28T00:35:41;5.55;;;2.42;;
76021;SDS011;64718;52.124;6.226;2023-02-28T00:38:08;4.25;;;2.85;;
76021;SDS011;64718;52.124;6.226;2023-02-28T00:40:35;3.85;;;2.33;;
76021;SDS011;64718;52.124;6.226;2023-02-28T00:43:01;3.65;;;2.60;;
76021;SDS011;64718;52.124;6.226;2023-02-28T00:45:29;5.72;;;3.00;;
76021;SDS011;64718;52.124;6.226;2023-02-28T00:47:56;5.38;;;2.80;;
76021;SDS011;64718;52.124;6.226;2023-02-28T00:50:23;4.13;;;2.35;;
76021;SDS011;64718;52.124;6.226;2023-02-28T00:52:50;4.03;;;2.83;;
76021;SDS011;64718;52.124;6.226;2023-02-28T00:55:16;3.85;;;2.78;;
76021;SDS011;64718;52.124;6.226;2023-02-28T00:57:43;4.07;;;2.17;;
76021;SDS011;64718;52.124;6.226;2023-02-28T01:00:10;5.00;;;2.83;;
76021;SDS011;64718;52.124;6.226;2023-02-28T01:02:37;4.00;;;2.30;;
76021;SDS011;64718;52.124;6.226;2023-02-28T01:05:06;4.38;;;2.60;;
76021;SDS011;64718;52.124;6.226;2023-02-28T01:07:33;5.85;;;2.83;;
76021;SDS011;64718;52.124;6.226;2023-02-28T01:09:59;4.53;;;2.80;;
76021;SDS011;64718;52.124;6.226;2023-02-28T01:12:26;4.35;;;2.40;;
76021;SDS011;64718;52.124;6.226;2023-02-28T01:14:52;8.05;;;2.33;;
76021;SDS011;64718;52.124;6.226;2023-02-28T01:17:19;4.03;;;3.42;;
76021;SDS011;64718;52.124;6.226;2023-02-28T01:19:45;6.55;;;2.65;;
76021;SDS011;64718;52.124;6.226;2023-02-28T01:22:13;4.25;;;2.55;;
76021;SDS011;64718;52.124;6.226;2023-02-28T01:24:40;2.67;;;2.47;;
76021;SDS011;64718;52.124;6.226;2023-02-28T01:27:06;4.80;;;2.83;;
76021;SDS011;64718;52.124;6.226;2023-02-28T01:29:33;5.90;;;2.78;;
76021;SDS011;64718;52.124;6.226;2023-02-28T01:31:59;6.07;;;3.60;;
76021;SDS011;64718;52.124;6.226;2023-02-28T01:34:26;5.82;;;2.45;;
76021;SDS011;64718;52.124;6.226;2023-02-28T01:36:52;4.78;;;2.05;;
76021;SDS011;64718;52.124;6.226;2023-02-28T01:39:20;6.07;;;3.47;;
76021;SDS011;64718;52.124;6.226;2023-02-28T01:41:47;4.53;;;2.60;;
76021;SDS011;64718;52.124;6.226;2023-02-28T01:47:18;5.13;;;2.55;;
76021;SDS011;64718;52.124;6.226;2023-02-28T01:49:44;4.43;;;2.75;;
76021;SDS011;64718;52.124;6.226;2023-02-28T01:52:11;5.30;;;2.28;;
76021;SDS011;64718;52.124;6.226;2023-02-28T01:54:44;5.05;;;2.45;;
76021;SDS011;64718;52.124;6.226;2023-02-28T01:57:14;3.13;;;2.35;;
76021;SDS011;64718;52.124;6.226;2023-02-28T01:59:46;5.78;;;2.20;;
76021;SDS011;64718;52.124;6.226;2023-02-28T02:02:18;5.97;;;3.10;;
76021;SDS011;64718;52.124;6.226;2023-02-28T02:04:50;4.65;;;2.65;;
76021;SDS011;64718;52.124;6.226;2023-02-28T02:07:19;5.95;;;2.55;;
76021;SDS011;64718;52.124;6.226;2023-02-28T02:09:47;4.80;;;2.63;;
76021;SDS011;64718;52.124;6.226;2023-02-28T02:12:16;4.85;;;3.00;;
76021;SDS011;64718;52.124;6.226;2023-02-28T02:14:57;7.07;;;2.92;;
76021;SDS011;64718;52.124;6.226;2023-02-28T02:17:32;6.88;;;2.65;;
76021;SDS011;64718;52.124;6.226;2023-02-28T02:26:02;5.88;;;3.05;;
76021;SDS011;64718;52.124;6.226;2023-02-28T02:28:55;6.88;;;3.30;;
76021;SDS011;64718;52.124;6.226;2023-02-28T02:32:02;5.60;;;2.63;;
76021;SDS011;64718;52.124;6.226;2023-02-28T02:34:49;4.45;;;2.90;;
76021;SDS011;64718;52.124;6.226;2023-02-28T02:37:27;4.20;;;2.65;;
76021;SDS011;64718;52.124;6.226;2023-02-28T02:40:04;6.15;;;2.60;;
76021;SDS011;64718;52.124;6.226;2023-02-28T02:42:39;4.50;;;2.90;;
76021;SDS011;64718;52.124;6.226;2023-02-28T02:45:11;4.35;;;2.92;;
76021;SDS011;64718;52.124;6.226;2023-02-28T02:47:42;4.20;;;2.47;;
76021;SDS011;64718;52.124;6.226;2023-02-28T02:50:13;4.82;;;3.30;;
76021;SDS011;64718;52.124;6.226;2023-02-28T02:52:44;3.85;;;2.45;;
76021;SDS011;64718;52.124;6.226;2023-02-28T02:55:15;5.00;;;3.40;;
76021;SDS011;64718;52.124;6.226;2023-02-28T02:57:45;3.80;;;3.22;;
76021;SDS011;64718;52.124;6.226;2023-02-28T03:00:18;5.25;;;3.03;;
76021;SDS011;64718;52.124;6.226;2023-02-28T03:02:49;5.15;;;2.83;;
76021;SDS011;64718;52.124;6.226;2023-02-28T03:05:23;4.95;;;3.10;;
76021;SDS011;64718;52.124;6.226;2023-02-28T03:07:51;6.05;;;3.20;;
76021;SDS011;64718;52.124;6.226;2023-02-28T03:13:24;4.93;;;3.63;;
76021;SDS011;64718;52.124;6.226;2023-02-28T03:19:00;4.22;;;2.42;;
76021;SDS011;64718;52.124;6.226;2023-02-28T03:21:38;6.38;;;2.75;;
76021;SDS011;64718;52.124;6.226;2023-02-28T03:24:10;5.72;;;3.35;;
76021;SDS011;64718;52.124;6.226;2023-02-28T03:26:43;6.40;;;2.58;;
76021;SDS011;64718;52.124;6.226;2023-02-28T03:29:17;7.47;;;3.05;;
76021;SDS011;64718;52.124;6.226;2023-02-28T03:31:54;4.85;;;2.47;;
76021;SDS011;64718;52.124;6.226;2023-02-28T03:34:26;7.22;;;2.80;;
76021;SDS011;64718;52.124;6.226;2023-02-28T03:36:59;5.18;;;2.72;;
76021;SDS011;64718;52.124;6.226;2023-02-28T03:39:34;5.82;;;3.10;;
76021;SDS011;64718;52.124;6.226;2023-02-28T03:42:05;4.20;;;2.85;;
76021;SDS011;64718;52.124;6.226;2023-02-28T03:44:36;2.80;;;2.17;;
76021;SDS011;64718;52.124;6.226;2023-02-28T03:47:07;4.15;;;2.78;;
76021;SDS011;64718;52.124;6.226;2023-02-28T03:49:38;5.88;;;2.65;;
76021;SDS011;64718;52.124;6.226;2023-02-28T03:52:10;6.55;;;3.70;;
76021;SDS011;64718;52.124;6.226;2023-02-28T03:54:39;5.30;;;3.22;;
76021;SDS011;64718;52.124;6.226;2023-02-28T03:57:10;6.30;;;2.78;;
76021;SDS011;64718;52.124;6.226;2023-02-28T04:04:40;3.75;;;2.40;;
76021;SDS011;64718;52.124;6.226;2023-02-28T04:07:11;4.28;;;2.33;;
76021;SDS011;64718;52.124;6.226;2023-02-28T04:09:38;3.58;;;2.30;;
76021;SDS011;64718;52.124;6.226;2023-02-28T04:12:04;6.57;;;3.03;;
76021;SDS011;64718;52.124;6.226;2023-02-28T04:14:31;6.78;;;2.60;;
76021;SDS011;64718;52.124;6.226;2023-02-28T04:16:58;4.05;;;2.53;;
76021;SDS011;64718;52.124;6.226;2023-02-28T04:19:24;6.10;;;2.25;;
76021;SDS011;64718;52.124;6.226;2023-02-28T04:21:51;3.75;;;2.60;;
76021;SDS011;64718;52.124;6.226;2023-02-28T04:24:21;6.00;;;2.92;;
76021;SDS011;64718;52.124;6.226;2023-02-28T04:26:50;4.88;;;2.40;;
76021;SDS011;64718;52.124;6.226;2023-02-28T04:29:18;4.72;;;2.70;;
76021;SDS011;64718;52.124;6.226;2023-02-28T04:31:46;5.28;;;2.67;;
76021;SDS011;64718;52.124;6.226;2023-02-28T04:34:12;4.20;;;2.35;;
76021;SDS011;64718;52.124;6.226;2023-02-28T04:36:39;5.28;;;2.92;;
76021;SDS011;64718;52.124;6.226;2023-02-28T04:39:06;4.88;;;2.72;;
76021;SDS011;64718;52.124;6.226;2023-02-28T04:41:34;5.25;;;3.00;;
76021;SDS011;64718;52.124;6.226;2023-02-28T04:44:00;4.55;;;2.50;;
76021;SDS011;64718;52.124;6.226;2023-02-28T04:46:27;5.57;;;2.67;;
76021;SDS011;64718;52.124;6.226;2023-02-28T04:48:53;6.57;;;2.63;;
76021;SDS011;64718;52.124;6.226;2023-02-28T04:51:20;7.03;;;3.13;;
76021;SDS011;64718;52.124;6.226;2023-02-28T04:53:47;4.43;;;2.72;;
76021;SDS011;64718;52.124;6.226;2023-02-28T04:56:15;4.15;;;2.28;;
76021;SDS011;64718;52.124;6.226;2023-02-28T04:58:44;4.32;;;2.70;;
76021;SDS011;64718;52.124;6.226;2023-02-28T05:01:17;3.35;;;2.75;;
76021;SDS011;64718;52.124;6.226;2023-02-28T05:03:47;4.38;;;3.25;;
76021;SDS011;64718;52.124;6.226;2023-02-28T05:06:14;5.32;;;3.45;;
76021;SDS011;64718;52.124;6.226;2023-02-28T05:08:41;4.20;;;2.33;;
76021;SDS011;64718;52.124;6.226;2023-02-28T05:11:11;4.50;;;2.30;;
76021;SDS011;64718;52.124;6.226;2023-02-28T05:13:40;4.45;;;2.88;;
76021;SDS011;64718;52.124;6.226;2023-02-28T05:16:08;4.93;;;2.78;;
76021;SDS011;64718;52.124;6.226;2023-02-28T05:18:35;3.63;;;2.30;;
76021;SDS011;64718;52.124;6.226;2023-02-28T05:21:01;7.47;;;2.80;;
76021;SDS011;64718;52.124;6.226;2023-02-28T05:23:28;5.35;;;2.50;;
76021;SDS011;64718;52.124;6.226;2023-02-28T05:25:55;4.45;;;2.33;;
76021;SDS011;64718;52.124;6.226;2023-02-28T05:28:21;3.38;;;2.38;;
76021;SDS011;64718;52.124;6.226;2023-02-28T05:30:48;5.93;;;3.67;;
76021;SDS011;64718;52.124;6.226;2023-02-28T05:33:16;4.50;;;2.35;;
76021;SDS011;64718;52.124;6.226;2023-02-28T05:35:43;4.60;;;2.65;;
76021;SDS011;64718;52.124;6.226;2023-02-28T05:38:09;4.93;;;2.70;;
76021;SDS011;64718;52.124;6.226;2023-02-28T05:40:37;4.50;;;3.00;;
76021;SDS011;64718;52.124;6.226;2023-02-28T05:43:05;3.80;;;3.00;;
76021;SDS011;64718;52.124;6.226;2023-02-28T05:45:31;3.33;;;2.75;;
76021;SDS011;64718;52.124;6.226;2023-02-28T05:47:58;4.63;;;2.70;;
76021;SDS011;64718;52.124;6.226;2023-02-28T05:50:26;5.32;;;2.90;;
76021;SDS011;64718;52.124;6.226;2023-02-28T05:52:52;6.22;;;3.17;;
76021;SDS011;64718;52.124;6.226;2023-02-28T05:55:19;4.55;;;2.63;;
76021;SDS011;64718;52.124;6.226;2023-02-28T05:57:45;4.07;;;2.55;;
76021;SDS011;64718;52.124;6.226;2023-02-28T06:00:12;4.40;;;2.75;;
76021;SDS011;64718;52.124;6.226;2023-02-28T06:02:40;5.13;;;2.97;;
76021;SDS011;64718;52.124;6.226;2023-02-28T06:05:08;4.55;;;3.17;;
76021;SDS011;64718;52.124;6.226;2023-02-28T06:07:41;3.78;;;2.83;;
76021;SDS011;64718;52.124;6.226;2023-02-28T06:10:08;6.15;;;2.88;;
76021;SDS011;64718;52.124;6.226;2023-02-28T06:12:36;4.82;;;2.90;;
76021;SDS011;64718;52.124;6.226;2023-02-28T06:15:03;5.82;;;3.00;;
76021;SDS011;64718;52.124;6.226;2023-02-28T06:17:30;4.78;;;2.95;;
76021;SDS011;64718;52.124;6.226;2023-02-28T06:19:57;6.60;;;3.13;;
76021;SDS011;64718;52.124;6.226;2023-02-28T06:22:23;4.07;;;3.17;;
76021;SDS011;64718;52.124;6.226;2023-02-28T06:24:51;4.45;;;3.22;;
76021;SDS011;64718;52.124;6.226;2023-02-28T06:27:19;6.63;;;3.72;;
76021;SDS011;64718;52.124;6.226;2023-02-28T06:29:47;3.83;;;2.80;;
76021;SDS011;64718;52.124;6.226;2023-02-28T06:32:13;4.35;;;3.03;;
76021;SDS011;64718;52.124;6.226;2023-02-28T06:34:40;6.57;;;2.97;;
76021;SDS011;64718;52.124;6.226;2023-02-28T06:37:06;5.88;;;3.35;;
76021;SDS011;64718;52.124;6.226;2023-02-28T06:39:33;4.32;;;3.25;;
76021;SDS011;64718;52.124;6.226;2023-02-28T06:42:01;6.68;;;3.25;;
76021;SDS011;64718;52.124;6.226;2023-02-28T06:44:27;5.45;;;3.20;;
76021;SDS011;64718;52.124;6.226;2023-02-28T06:47:00;2.97;;;2.67;;
76021;SDS011;64718;52.124;6.226;2023-02-28T06:49:28;4.30;;;2.85;;
76021;SDS011;64718;52.124;6.226;2023-02-28T06:51:55;6.07;;;3.00;;
76021;SDS011;64718;52.124;6.226;2023-02-28T06:54:22;4.57;;;3.28;;
76021;SDS011;64718;52.124;6.226;2023-02-28T06:56:48;6.20;;;3.47;;
76021;SDS011;64718;52.124;6.226;2023-02-28T06:59:16;3.60;;;2.53;;
76021;SDS011;64718;52.124;6.226;2023-02-28T07:01:43;5.03;;;3.00;;
76021;SDS011;64718;52.124;6.226;2023-02-28T07:04:10;4.10;;;2.60;;
76021;SDS011;64718;52.124;6.226;2023-02-28T07:06:38;5.47;;;3.70;;
76021;SDS011;64718;52.124;6.226;2023-02-28T07:09:05;3.70;;;3.33;;
76021;SDS011;64718;52.124;6.226;2023-02-28T07:11:31;5.78;;;3.35;;
76021;SDS011;64718;52.124;6.226;2023-02-28T07:13:58;5.78;;;3.17;;
76021;SDS011;64718;52.124;6.226;2023-02-28T07:16:26;6.70;;;3.40;;
76021;SDS011;64718;52.124;6.226;2023-02-28T07:18:52;4.88;;;3.47;;
76021;SDS011;64718;52.124;6.226;2023-02-28T07:21:20;4.75;;;2.95;;
76021;SDS011;64718;52.124;6.226;2023-02-28T07:23:46;4.53;;;2.85;;
76021;SDS011;64718;52.124;6.226;2023-02-28T07:26:13;6.30;;;2.92;;
76021;SDS011;64718;52.124;6.226;2023-02-28T07:28:42;3.42;;;2.65;;
76021;SDS011;64718;52.124;6.226;2023-02-28T07:31:09;4.25;;;3.15;;
76021;SDS011;64718;52.124;6.226;2023-02-28T07:33:38;6.32;;;3.03;;
76021;SDS011;64718;52.124;6.226;2023-02-28T07:36:05;4.00;;;3.33;;
76021;SDS011;64718;52.124;6.226;2023-02-28T07:38:33;4.45;;;3.13;;
76021;SDS011;64718;52.124;6.226;2023-02-28T07:41:00;6.03;;;3.00;;
76021;SDS011;64718;52.124;6.226;2023-02-28T07:43:29;4.32;;;3.13;;
76021;SDS011;64718;52.124;6.226;2023-02-28T07:45:55;6.18;;;3.75;;
76021;SDS011;64718;52.124;6.226;2023-02-28T07:48:27;5.35;;;3.90;;
76021;SDS011;64718;52.124;6.226;2023-02-28T07:50:55;7.40;;;3.45;;
76021;SDS011;64718;52.124;6.226;2023-02-28T07:53:22;3.67;;;2.90;;
76021;SDS011;64718;52.124;6.226;2023-02-28T07:55:49;3.20;;;2.67;;
76021;SDS011;64718;52.124;6.226;2023-02-28T07:58:15;5.68;;;3.17;;
76021;SDS011;64718;52.124;6.226;2023-02-28T08:00:42;4.35;;;2.47;;
76021;SDS011;64718;52.124;6.226;2023-02-28T08:03:08;4.10;;;3.78;;
76021;SDS011;64718;52.124;6.226;2023-02-28T08:05:38;2.35;;;2.15;;
76021;SDS011;64718;52.124;6.226;2023-02-28T08:08:06;3.88;;;2.85;;
76021;SDS011;64718;52.124;6.226;2023-02-28T08:10:33;5.60;;;2.25;;
76021;SDS011;64718;52.124;6.226;2023-02-28T08:13:00;3.20;;;1.98;;
76021;SDS011;64718;52.124;6.226;2023-02-28T08:15:26;2.85;;;2.35;;
76021;SDS011;64718;52.124;6.226;2023-02-28T08:17:53;4.80;;;2.38;;
76021;SDS011;64718;52.124;6.226;2023-02-28T08:20:21;2.42;;;2.22;;
76021;SDS011;64718;52.124;6.226;2023-02-28T08:22:47;2.88;;;2.08;;
76021;SDS011;64718;52.124;6.226;2023-02-28T08:25:15;2.42;;;2.03;;
76021;SDS011;64718;52.124;6.226;2023-02-28T08:27:42;1.67;;;1.58;;
76021;SDS011;64718;52.124;6.226;2023-02-28T08:30:10;2.20;;;1.50;;
76021;SDS011;64718;52.124;6.226;2023-02-28T08:32:37;1.65;;;1.33;;
76021;SDS011;64718;52.124;6.226;2023-02-28T08:35:04;1.80;;;1.25;;
76021;SDS011;64718;52.124;6.226;2023-02-28T08:37:31;2.05;;;1.05;;
76021;SDS011;64718;52.124;6.226;2023-02-28T08:39:57;2.67;;;1.50;;
76021;SDS011;64718;52.124;6.226;2023-02-28T08:42:25;1.63;;;1.50;;
76021;SDS011;64718;52.124;6.226;2023-02-28T08:44:52;1.33;;;1.23;;
76021;SDS011;64718;52.124;6.226;2023-02-28T08:47:19;2.50;;;1.38;;
76021;SDS011;64718;52.124;6.226;2023-02-28T08:49:45;2.45;;;2.35;;
76021;SDS011;64718;52.124;6.226;2023-02-28T08:52:12;1.75;;;1.50;;
76021;SDS011;64718;52.124;6.226;2023-02-28T08:54:39;1.40;;;1.15;;
76021;SDS011;64718;52.124;6.226;2023-02-28T08:57:06;1.17;;;1.08;;
76021;SDS011;64718;52.124;6.226;2023-02-28T08:59:34;1.73;;;1.33;;
76021;SDS011;64718;52.124;6.226;2023-02-28T09:02:01;1.65;;;1.42;;
76021;SDS011;64718;52.124;6.226;2023-02-28T09:04:28;1.55;;;1.45;;
76021;SDS011;64718;52.124;6.226;2023-02-28T09:06:55;2.05;;;1.10;;
76021;SDS011;64718;52.124;6.226;2023-02-28T09:09:22;1.02;;;0.93;;
76021;SDS011;64718;52.124;6.226;2023-02-28T09:11:49;1.02;;;0.95;;
76021;SDS011;64718;52.124;6.226;2023-02-28T09:14:15;3.47;;;2.20;;
76021;SDS011;64718;52.124;6.226;2023-02-28T09:16:43;1.23;;;1.13;;
76021;SDS011;64718;52.124;6.226;2023-02-28T09:19:10;1.77;;;1.67;;
76021;SDS011;64718;52.124;6.226;2023-02-28T09:21:37;0.98;;;0.88;;
76021;SDS011;64718;52.124;6.226;2023-02-28T09:24:04;2.50;;;1.33;;
76021;SDS011;64718;52.124;6.226;2023-02-28T09:26:31;1.83;;;1.10;;
76021;SDS011;64718;52.124;6.226;2023-02-28T09:28:59;1.23;;;1.13;;
76021;SDS011;64718;52.124;6.226;2023-02-28T09:31:27;1.55;;;1.25;;
76021;SDS011;64718;52.124;6.226;2023-02-28T09:33:56;2.22;;;1.05;;
76021;SDS011;64718;52.124;6.226;2023-02-28T09:36:24;2.10;;;1.48;;
76021;SDS011;64718;52.124;6.226;2023-02-28T09:38:54;1.42;;;0.93;;
76021;SDS011;64718;52.124;6.226;2023-02-28T09:41:22;1.05;;;0.75;;
76021;SDS011;64718;52.124;6.226;2023-02-28T09:43:53;1.10;;;0.88;;
76021;SDS011;64718;52.124;6.226;2023-02-28T09:46:27;1.52;;;1.42;;
76021;SDS011;64718;52.124;6.226;2023-02-28T09:48:58;1.50;;;1.23;;
76021;SDS011;64718;52.124;6.226;2023-02-28T09:51:30;1.13;;;0.85;;
76021;SDS011;64718;52.124;6.226;2023-02-28T09:54:04;1.15;;;1.05;;
76021;SDS011;64718;52.124;6.226;2023-02-28T09:56:34;2.25;;;2.15;;
76021;SDS011;64718;52.124;6.226;2023-02-28T09:59:05;1.60;;;1.33;;
76021;SDS011;64718;52.124;6.226;2023-02-28T10:01:43;1.25;;;1.00;;
76021;SDS011;64718;52.124;6.226;2023-02-28T10:04:22;2.10;;;0.98;;
76021;SDS011;64718;52.124;6.226;2023-02-28T10:07:05;1.52;;;1.05;;
76021;SDS011;64718;52.124;6.226;2023-02-28T10:09:42;1.92;;;0.82;;
76021;SDS011;64718;52.124;6.226;2023-02-28T10:12:11;1.55;;;1.02;;
76021;SDS011;64718;52.124;6.226;2023-02-28T10:14:40;1.25;;;0.55;;
76021;SDS011;64718;52.124;6.226;2023-02-28T10:17:12;1.45;;;0.90;;
76021;SDS011;64718;52.124;6.226;2023-02-28T10:19:44;1.00;;;0.82;;
76021;SDS011;64718;52.124;6.226;2023-02-28T10:22:20;1.52;;;0.80;;
76021;SDS011;64718;52.124;6.226;2023-02-28T10:24:51;0.80;;;0.80;;
76021;SDS011;64718;52.124;6.226;2023-02-28T10:27:21;3.42;;;1.00;;
76021;SDS011;64718;52.124;6.226;2023-02-28T10:29:50;2.22;;;0.82;;
76021;SDS011;64718;52.124;6.226;2023-02-28T10:32:18;1.20;;;0.60;;
76021;SDS011;64718;52.124;6.226;2023-02-28T10:34:50;3.22;;;1.13;;
76021;SDS011;64718;52.124;6.226;2023-02-28T10:37:21;1.65;;;1.05;;
76021;SDS011;64718;52.124;6.226;2023-02-28T10:39:48;1.13;;;1.02;;
76021;SDS011;64718;52.124;6.226;2023-02-28T10:42:22;0.82;;;0.73;;
76021;SDS011;64718;52.124;6.226;2023-02-28T10:45:04;2.35;;;0.88;;
76021;SDS011;64718;52.124;6.226;2023-02-28T10:47:33;1.73;;;1.02;;
76021;SDS011;64718;52.124;6.226;2023-02-28T10:50:04;1.90;;;0.95;;
76021;SDS011;64718;52.124;6.226;2023-02-28T10:52:36;0.88;;;0.88;;
76021;SDS011;64718;52.124;6.226;2023-02-28T10:55:14;1.13;;;0.68;;
76021;SDS011;64718;52.124;6.226;2023-02-28T10:57:45;2.42;;;0.98;;
76021;SDS011;64718;52.124;6.226;2023-02-28T11:00:14;1.20;;;1.05;;
76021;SDS011;64718;52.124;6.226;2023-02-28T11:02:41;1.02;;;0.65;;
76021;SDS011;64718;52.124;6.226;2023-02-28T11:07:57;2.47;;;1.88;;
76021;SDS011;64718;52.124;6.226;2023-02-28T11:10:30;1.17;;;0.68;;
76021;SDS011;64718;52.124;6.226;2023-02-28T11:12:59;1.13;;;1.00;;
76021;SDS011;64718;52.124;6.226;2023-02-28T11:15:28;0.93;;;0.65;;
76021;SDS011;64718;52.124;6.226;2023-02-28T11:20:25;2.20;;;1.55;;
76021;SDS011;64718;52.124;6.226;2023-02-28T11:22:56;1.80;;;1.63;;
76021;SDS011;64718;52.124;6.226;2023-02-28T11:25:24;2.20;;;1.05;;
76021;SDS011;64718;52.124;6.226;2023-02-28T11:27:53;1.60;;;0.90;;
76021;SDS011;64718;52.124;6.226;2023-02-28T11:30:33;3.00;;;1.27;;
76021;SDS011;64718;52.124;6.226;2023-02-28T11:33:18;1.85;;;1.40;;
76021;SDS011;64718;52.124;6.226;2023-02-28T11:35:48;1.60;;;1.23;;
76021;SDS011;64718;52.124;6.226;2023-02-28T11:38:18;2.17;;;1.40;;
76021;SDS011;64718;52.124;6.226;2023-02-28T11:40:46;2.05;;;1.67;;
76021;SDS011;64718;52.124;6.226;2023-02-28T11:43:26;1.80;;;1.70;;
76021;SDS011;64718;52.124;6.226;2023-02-28T11:46:07;1.55;;;1.17;;
76021;SDS011;64718;52.124;6.226;2023-02-28T11:48:46;1.80;;;1.10;;
76021;SDS011;64718;52.124;6.226;2023-02-28T11:51:21;2.63;;;0.93;;
76021;SDS011;64718;52.124;6.226;2023-02-28T11:53:58;1.70;;;1.13;;
76021;SDS011;64718;52.124;6.226;2023-02-28T11:56:35;1.08;;;0.90;;
76021;SDS011;64718;52.124;6.226;2023-02-28T11:59:08;1.58;;;0.82;;
76021;SDS011;64718;52.124;6.226;2023-02-28T12:01:54;0.55;;;0.43;;
76021;SDS011;64718;52.124;6.226;2023-02-28T12:04:33;0.77;;;0.75;;
76021;SDS011;64718;52.124;6.226;2023-02-28T12:07:13;1.15;;;0.70;;
76021;SDS011;64718;52.124;6.226;2023-02-28T12:09:49;2.13;;;0.80;;
76021;SDS011;64718;52.124;6.226;2023-02-28T12:12:30;1.30;;;1.20;;
76021;SDS011;64718;52.124;6.226;2023-02-28T12:18:00;2.35;;;0.90;;
76021;SDS011;64718;52.124;6.226;2023-02-28T12:20:40;1.38;;;0.95;;
76021;SDS011;64718;52.124;6.226;2023-02-28T12:23:29;1.65;;;0.90;;
76021;SDS011;64718;52.124;6.226;2023-02-28T12:26:14;1.20;;;1.10;;
76021;SDS011;64718;52.124;6.226;2023-02-28T12:28:47;1.48;;;1.05;;
76021;SDS011;64718;52.124;6.226;2023-02-28T12:31:18;1.15;;;1.00;;
76021;SDS011;64718;52.124;6.226;2023-02-28T12:33:49;1.10;;;0.98;;
76021;SDS011;64718;52.124;6.226;2023-02-28T12:36:19;1.30;;;1.10;;
76021;SDS011;64718;52.124;6.226;2023-02-28T12:38:49;1.60;;;0.90;;
76021;SDS011;64718;52.124;6.226;2023-02-28T12:41:25;1.25;;;0.93;;
76021;SDS011;64718;52.124;6.226;2023-02-28T12:43:56;1.25;;;0.90;;
76021;SDS011;64718;52.124;6.226;2023-02-28T12:46:33;1.77;;;1.35;;
76021;SDS011;64718;52.124;6.226;2023-02-28T12:49:05;2.00;;;1.65;;
76021;SDS011;64718;52.124;6.226;2023-02-28T12:51:34;1.25;;;1.13;;
76021;SDS011;64718;52.124;6.226;2023-02-28T12:54:04;1.08;;;0.98;;
76021;SDS011;64718;52.124;6.226;2023-02-28T12:56:42;1.80;;;0.93;;
76021;SDS011;64718;52.124;6.226;2023-02-28T12:59:15;0.95;;;0.85;;
76021;SDS011;64718;52.124;6.226;2023-02-28T13:04:53;1.95;;;0.82;;
76021;SDS011;64718;52.124;6.226;2023-02-28T13:07:47;0.98;;;0.90;;
76021;SDS011;64718;52.124;6.226;2023-02-28T13:10:24;1.13;;;1.02;;
76021;SDS011;64718;52.124;6.226;2023-02-28T13:13:03;1.48;;;1.20;;
76021;SDS011;64718;52.124;6.226;2023-02-28T13:15:30;1.65;;;1.15;;
76021;SDS011;64718;52.124;6.226;2023-02-28T13:18:00;1.75;;;1.33;;
76021;SDS011;64718;52.124;6.226;2023-02-28T13:20:33;1.00;;;0.90;;
76021;SDS011;64718;52.124;6.226;2023-02-28T13:23:02;1.20;;;1.02;;
76021;SDS011;64718;52.124;6.226;2023-02-28T13:31:28;1.77;;;1.05;;
76021;SDS011;64718;52.124;6.226;2023-02-28T13:34:04;1.30;;;1.20;;
76021;SDS011;64718;52.124;6.226;2023-02-28T13:36:32;1.92;;;1.05;;
76021;SDS011;64718;52.124;6.226;2023-02-28T13:38:59;2.22;;;1.38;;
76021;SDS011;64718;52.124;6.226;2023-02-28T13:41:42;1.60;;;1.25;;
76021;SDS011;64718;52.124;6.226;2023-02-28T13:44:10;1.63;;;1.42;;
76021;SDS011;64718;52.124;6.226;2023-02-28T13:49:47;3.65;;;1.17;;
76021;SDS011;64718;52.124;6.226;2023-02-28T13:52:16;2.08;;;1.33;;
76021;SDS011;64718;52.124;6.226;2023-02-28T13:54:56;1.75;;;1.65;;
76021;SDS011;64718;52.124;6.226;2023-02-28T13:57:38;1.45;;;1.35;;
76021;SDS011;64718;52.124;6.226;2023-02-28T14:00:16;1.63;;;1.30;;
76021;SDS011;64718;52.124;6.226;2023-02-28T14:03:03;1.02;;;0.93;;
76021;SDS011;64718;52.124;6.226;2023-02-28T14:05:38;1.65;;;0.90;;
76021;SDS011;64718;52.124;6.226;2023-02-28T14:08:06;2.22;;;1.02;;
76021;SDS011;64718;52.124;6.226;2023-02-28T14:10:41;1.52;;;0.90;;
76021;SDS011;64718;52.124;6.226;2023-02-28T14:13:12;1.58;;;0.85;;
76021;SDS011;64718;52.124;6.226;2023-02-28T14:15:43;1.23;;;0.82;;
76021;SDS011;64718;52.124;6.226;2023-02-28T14:18:21;0.93;;;0.80;;
76021;SDS011;64718;52.124;6.226;2023-02-28T14:20:52;1.42;;;1.33;;
76021;SDS011;64718;52.124;6.226;2023-02-28T14:29:30;1.48;;;0.93;;
76021;SDS011;64718;52.124;6.226;2023-02-28T14:32:10;1.30;;;1.00;;
76021;SDS011;64718;52.124;6.226;2023-02-28T14:34:50;1.20;;;0.98;;
76021;SDS011;64718;52.124;6.226;2023-02-28T14:37:28;1.25;;;0.88;;
76021;SDS011;64718;52.124;6.226;2023-02-28T14:39:57;1.98;;;1.80;;
76021;SDS011;64718;52.124;6.226;2023-02-28T14:42:27;1.50;;;0.88;;
76021;SDS011;64718;52.124;6.226;2023-02-28T14:44:55;1.65;;;1.40;;
76021;SDS011;64718;52.124;6.226;2023-02-28T14:47:22;1.60;;;1.20;;
76021;SDS011;64718;52.124;6.226;2023-02-28T14:49:53;1.30;;;1.20;;
76021;SDS011;64718;52.124;6.226;2023-02-28T14:52:21;0.70;;;0.55;;
76021;SDS011;64718;52.124;6.226;2023-02-28T14:57:22;0.80;;;0.80;;
76021;SDS011;64718;52.124;6.226;2023-02-28T14:59:57;3.42;;;1.60;;
76021;SDS011;64718;52.124;6.226;2023-02-28T15:02:25;1.70;;;1.00;;
76021;SDS011;64718;52.124;6.226;2023-02-28T15:04:54;1.55;;;1.30;;
76021;SDS011;64718;52.124;6.226;2023-02-28T15:07:21;1.27;;;1.05;;
76021;SDS011;64718;52.124;6.226;2023-02-28T15:10:06;1.92;;;1.15;;
76021;SDS011;64718;52.124;6.226;2023-02-28T15:12:37;2.35;;;1.75;;
76021;SDS011;64718;52.124;6.226;2023-02-28T15:15:13;1.75;;;1.35;;
76021;SDS011;64718;52.124;6.226;2023-02-28T15:17:41;1.40;;;1.25;;
76021;SDS011;64718;52.124;6.226;2023-02-28T15:20:13;1.75;;;1.33;;
76021;SDS011;64718;52.124;6.226;2023-02-28T15:22:41;1.50;;;1.25;;
76021;SDS011;64718;52.124;6.226;2023-02-28T15:25:09;1.63;;;1.35;;
76021;SDS011;64718;52.124;6.226;2023-02-28T15:27:42;1.73;;;0.75;;
76021;SDS011;64718;52.124;6.226;2023-02-28T15:30:14;1.15;;;1.05;;
76021;SDS011;64718;52.124;6.226;2023-02-28T15:32:43;2.65;;;1.80;;
76021;SDS011;64718;52.124;6.226;2023-02-28T15:35:19;1.35;;;0.82;;
76021;SDS011;64718;52.124;6.226;2023-02-28T15:37:53;1.30;;;0.93;;
76021;SDS011;64718;52.124;6.226;2023-02-28T15:40:23;1.50;;;0.95;;
76021;SDS011;64718;52.124;6.226;2023-02-28T15:42:58;1.65;;;1.05;;
76021;SDS011;64718;52.124;6.226;2023-02-28T15:45:32;1.23;;;1.02;;
76021;SDS011;64718;52.124;6.226;2023-02-28T15:48:02;0.73;;;0.73;;
76021;SDS011;64718;52.124;6.226;2023-02-28T15:50:30;0.82;;;0.77;;
76021;SDS011;64718;52.124;6.226;2023-02-28T15:52:57;1.25;;;0.82;;
76021;SDS011;64718;52.124;6.226;2023-02-28T15:55:27;1.05;;;0.95;;